sensor_id;sensor_type;location;lat;lon;timestamp;P1;durP1;ratioP1;P2;durP2;ratioP2
39050;SDS011;24805;55.852;37.644;2023-04-04T00:01:52;15.35;;;11.70;;
39050;SDS011;24805;55.852;37.644;2023-04-04T00:06:54;14.70;;;11.38;;
39050;SDS011;24805;55.852;37.644;2023-04-04T00:11:56;16.00;;;11.00;;
39050;SDS011;24805;55.852;37.644;2023-04-04T00:16:59;13.70;;;10.35;;
39050;SDS011;24805;55.852;37.644;2023-04-04T00:22:01;14.48;;;11.35;;
39050;SDS011;24805;55.852;37.644;2023-04-04T00:27:04;13.88;;;10.85;;
39050;SDS011;24805;55.852;37.644;2023-04-04T00:32:06;13.73;;;10.90;;
39050;SDS011;24805;55.852;37.644;2023-04-04T00:37:08;16.65;;;10.95;;
39050;SDS011;24805;55.852;37.644;2023-04-04T00:42:12;13.10;;;10.32;;
39050;SDS011;24805;55.852;37.644;2023-04-04T00:47:15;13.60;;;10.60;;
39050;SDS011;24805;55.852;37.644;2023-04-04T00:52:17;14.85;;;11.25;;
39050;SDS011;24805;55.852;37.644;2023-04-04T00:57:20;12.15;;;9.27;;
39050;SDS011;24805;55.852;37.644;2023-04-04T01:02:23;14.02;;;11.35;;
39050;SDS011;24805;55.852;37.644;2023-04-04T01:07:26;13.57;;;11.07;;
39050;SDS011;24805;55.852;37.644;2023-04-04T01:12:28;14.43;;;10.88;;
39050;SDS011;24805;55.852;37.644;2023-04-04T01:17:32;13.18;;;10.38;;
39050;SDS011;24805;55.852;37.644;2023-04-04T01:22:35;15.50;;;11.40;;
39050;SDS011;24805;55.852;37.644;2023-04-04T01:27:40;14.13;;;10.63;;
39050;SDS011;24805;55.852;37.644;2023-04-04T01:32:52;16.02;;;11.85;;
39050;SDS011;24805;55.852;37.644;2023-04-04T01:43:20;14.15;;;11.82;;
39050;SDS011;24805;55.852;37.644;2023-04-04T01:48:22;14.10;;;11.55;;
39050;SDS011;24805;55.852;37.644;2023-04-04T01:53:27;14.50;;;11.32;;
39050;SDS011;24805;55.852;37.644;2023-04-04T01:58:30;16.42;;;12.35;;
39050;SDS011;24805;55.852;37.644;2023-04-04T02:03:32;15.75;;;11.82;;
39050;SDS011;24805;55.852;37.644;2023-04-04T02:08:34;16.63;;;12.27;;
39050;SDS011;24805;55.852;37.644;2023-04-04T02:13:37;18.42;;;12.55;;
39050;SDS011;24805;55.852;37.644;2023-04-04T02:18:47;16.20;;;12.90;;
39050;SDS011;24805;55.852;37.644;2023-04-04T02:23:49;15.75;;;11.63;;
39050;SDS011;24805;55.852;37.644;2023-04-04T02:28:51;15.52;;;12.13;;
39050;SDS011;24805;55.852;37.644;2023-04-04T02:33:55;15.07;;;12.25;;
39050;SDS011;24805;55.852;37.644;2023-04-04T02:38:59;13.70;;;11.00;;
39050;SDS011;24805;55.852;37.644;2023-04-04T02:44:03;14.75;;;11.75;;
39050;SDS011;24805;55.852;37.644;2023-04-04T02:49:06;14.98;;;11.05;;
39050;SDS011;24805;55.852;37.644;2023-04-04T02:54:09;14.25;;;11.43;;
39050;SDS011;24805;55.852;37.644;2023-04-04T02:59:16;14.80;;;12.25;;
39050;SDS011;24805;55.852;37.644;2023-04-04T03:04:18;14.95;;;11.93;;
39050;SDS011;24805;55.852;37.644;2023-04-04T03:09:21;14.60;;;11.07;;
39050;SDS011;24805;55.852;37.644;2023-04-04T03:14:24;14.15;;;11.55;;
39050;SDS011;24805;55.852;37.644;2023-04-04T03:19:29;16.75;;;12.52;;
39050;SDS011;24805;55.852;37.644;2023-04-04T03:24:31;12.32;;;10.35;;
39050;SDS011;24805;55.852;37.644;2023-04-04T03:29:33;13.95;;;10.75;;
39050;SDS011;24805;55.852;37.644;2023-04-04T03:34:37;14.10;;;11.35;;
39050;SDS011;24805;55.852;37.644;2023-04-04T03:39:39;14.48;;;11.88;;
39050;SDS011;24805;55.852;37.644;2023-04-04T03:44:41;12.52;;;10.40;;
39050;SDS011;24805;55.852;37.644;2023-04-04T03:49:51;17.45;;;11.00;;
39050;SDS011;24805;55.852;37.644;2023-04-04T03:54:53;13.90;;;11.05;;
39050;SDS011;24805;55.852;37.644;2023-04-04T03:59:56;15.95;;;11.27;;
39050;SDS011;24805;55.852;37.644;2023-04-04T04:04:58;16.25;;;11.50;;
39050;SDS011;24805;55.852;37.644;2023-04-04T04:10:00;14.50;;;11.13;;
39050;SDS011;24805;55.852;37.644;2023-04-04T04:15:04;14.30;;;10.68;;
39050;SDS011;24805;55.852;37.644;2023-04-04T04:20:08;13.88;;;10.23;;
39050;SDS011;24805;55.852;37.644;2023-04-04T04:25:16;13.43;;;11.10;;
39050;SDS011;24805;55.852;37.644;2023-04-04T04:30:45;12.27;;;10.75;;
39050;SDS011;24805;55.852;37.644;2023-04-04T04:35:51;11.95;;;10.07;;
39050;SDS011;24805;55.852;37.644;2023-04-04T04:40:56;13.43;;;10.02;;
39050;SDS011;24805;55.852;37.644;2023-04-04T04:46:04;14.65;;;10.30;;
39050;SDS011;24805;55.852;37.644;2023-04-04T04:51:06;15.00;;;9.70;;
39050;SDS011;24805;55.852;37.644;2023-04-04T04:56:19;12.20;;;9.13;;
39050;SDS011;24805;55.852;37.644;2023-04-04T05:01:24;12.30;;;9.65;;
39050;SDS011;24805;55.852;37.644;2023-04-04T05:06:29;12.25;;;9.30;;
39050;SDS011;24805;55.852;37.644;2023-04-04T05:11:31;11.18;;;9.57;;
39050;SDS011;24805;55.852;37.644;2023-04-04T05:16:35;11.38;;;9.27;;
39050;SDS011;24805;55.852;37.644;2023-04-04T05:21:39;12.32;;;9.75;;
39050;SDS011;24805;55.852;37.644;2023-04-04T05:26:46;12.55;;;9.20;;
39050;SDS011;24805;55.852;37.644;2023-04-04T05:31:51;11.13;;;8.50;;
39050;SDS011;24805;55.852;37.644;2023-04-04T05:36:56;10.98;;;8.88;;
39050;SDS011;24805;55.852;37.644;2023-04-04T05:41:59;10.32;;;7.95;;
39050;SDS011;24805;55.852;37.644;2023-04-04T05:47:05;9.45;;;8.23;;
39050;SDS011;24805;55.852;37.644;2023-04-04T05:52:09;8.20;;;7.18;;
39050;SDS011;24805;55.852;37.644;2023-04-04T05:57:12;10.02;;;7.70;;
39050;SDS011;24805;55.852;37.644;2023-04-04T06:02:18;10.82;;;7.60;;
39050;SDS011;24805;55.852;37.644;2023-04-04T06:07:26;8.13;;;6.82;;
39050;SDS011;24805;55.852;37.644;2023-04-04T06:12:28;8.95;;;7.78;;
39050;SDS011;24805;55.852;37.644;2023-04-04T06:17:30;8.70;;;7.72;;
39050;SDS011;24805;55.852;37.644;2023-04-04T06:22:32;8.75;;;7.18;;
39050;SDS011;24805;55.852;37.644;2023-04-04T06:27:36;10.93;;;8.38;;
39050;SDS011;24805;55.852;37.644;2023-04-04T06:32:40;8.10;;;7.00;;
39050;SDS011;24805;55.852;37.644;2023-04-04T06:37:47;9.05;;;7.65;;
39050;SDS011;24805;55.852;37.644;2023-04-04T06:42:53;9.27;;;7.25;;
39050;SDS011;24805;55.852;37.644;2023-04-04T06:48:07;7.65;;;6.85;;
39050;SDS011;24805;55.852;37.644;2023-04-04T06:53:10;8.25;;;6.78;;
39050;SDS011;24805;55.852;37.644;2023-04-04T06:58:13;11.18;;;8.00;;
39050;SDS011;24805;55.852;37.644;2023-04-04T07:03:15;8.43;;;7.57;;
39050;SDS011;24805;55.852;37.644;2023-04-04T07:08:17;7.93;;;7.13;;
39050;SDS011;24805;55.852;37.644;2023-04-04T07:13:20;10.38;;;6.90;;
39050;SDS011;24805;55.852;37.644;2023-04-04T07:18:22;9.70;;;6.88;;
39050;SDS011;24805;55.852;37.644;2023-04-04T07:23:24;8.15;;;6.78;;
39050;SDS011;24805;55.852;37.644;2023-04-04T07:28:26;9.90;;;6.38;;
39050;SDS011;24805;55.852;37.644;2023-04-04T07:33:28;10.75;;;6.78;;
39050;SDS011;24805;55.852;37.644;2023-04-04T07:38:31;9.05;;;6.63;;
39050;SDS011;24805;55.852;37.644;2023-04-04T07:43:33;9.25;;;7.15;;
39050;SDS011;24805;55.852;37.644;2023-04-04T07:48:35;9.57;;;7.55;;
39050;SDS011;24805;55.852;37.644;2023-04-04T07:53:37;10.10;;;7.22;;
39050;SDS011;24805;55.852;37.644;2023-04-04T07:58:39;10.27;;;8.15;;
39050;SDS011;24805;55.852;37.644;2023-04-04T08:03:41;10.25;;;7.90;;
39050;SDS011;24805;55.852;37.644;2023-04-04T08:08:44;10.60;;;8.77;;
39050;SDS011;24805;55.852;37.644;2023-04-04T08:13:48;14.52;;;8.98;;
39050;SDS011;24805;55.852;37.644;2023-04-04T08:18:50;14.13;;;9.00;;
39050;SDS011;24805;55.852;37.644;2023-04-04T08:23:53;12.02;;;9.48;;
39050;SDS011;24805;55.852;37.644;2023-04-04T08:28:56;13.35;;;8.75;;
39050;SDS011;24805;55.852;37.644;2023-04-04T08:33:58;16.58;;;8.50;;
39050;SDS011;24805;55.852;37.644;2023-04-04T08:39:02;11.77;;;7.45;;
39050;SDS011;24805;55.852;37.644;2023-04-04T08:44:04;9.05;;;6.13;;
39050;SDS011;24805;55.852;37.644;2023-04-04T08:49:11;10.73;;;6.43;;
39050;SDS011;24805;55.852;37.644;2023-04-04T08:54:16;9.80;;;6.40;;
39050;SDS011;24805;55.852;37.644;2023-04-04T08:59:20;11.98;;;5.25;;
39050;SDS011;24805;55.852;37.644;2023-04-04T09:04:22;9.85;;;4.95;;
39050;SDS011;24805;55.852;37.644;2023-04-04T09:09:26;12.32;;;5.45;;
39050;SDS011;24805;55.852;37.644;2023-04-04T09:14:29;14.23;;;5.10;;
39050;SDS011;24805;55.852;37.644;2023-04-04T09:19:32;9.43;;;4.72;;
39050;SDS011;24805;55.852;37.644;2023-04-04T09:24:38;6.65;;;4.00;;
39050;SDS011;24805;55.852;37.644;2023-04-04T09:29:41;9.68;;;3.95;;
39050;SDS011;24805;55.852;37.644;2023-04-04T09:34:43;7.75;;;4.35;;
39050;SDS011;24805;55.852;37.644;2023-04-04T09:39:46;10.45;;;5.13;;
39050;SDS011;24805;55.852;37.644;2023-04-04T09:44:52;11.80;;;5.82;;
39050;SDS011;24805;55.852;37.644;2023-04-04T09:49:56;8.88;;;5.15;;
39050;SDS011;24805;55.852;37.644;2023-04-04T09:54:59;12.65;;;5.63;;
39050;SDS011;24805;55.852;37.644;2023-04-04T10:00:04;14.80;;;6.03;;
39050;SDS011;24805;55.852;37.644;2023-04-04T10:05:09;6.85;;;3.10;;
39050;SDS011;24805;55.852;37.644;2023-04-04T10:10:12;7.13;;;2.97;;
39050;SDS011;24805;55.852;37.644;2023-04-04T10:15:16;8.13;;;3.60;;
39050;SDS011;24805;55.852;37.644;2023-04-04T10:20:18;9.88;;;3.70;;
39050;SDS011;24805;55.852;37.644;2023-04-04T10:25:23;8.00;;;3.42;;
39050;SDS011;24805;55.852;37.644;2023-04-04T10:30:25;9.68;;;3.78;;
39050;SDS011;24805;55.852;37.644;2023-04-04T10:35:27;12.50;;;3.63;;
39050;SDS011;24805;55.852;37.644;2023-04-04T10:40:32;14.35;;;3.83;;
39050;SDS011;24805;55.852;37.644;2023-04-04T10:45:38;7.57;;;3.60;;
39050;SDS011;24805;55.852;37.644;2023-04-04T10:50:43;7.07;;;3.67;;
39050;SDS011;24805;55.852;37.644;2023-04-04T10:55:47;6.65;;;2.92;;
39050;SDS011;24805;55.852;37.644;2023-04-04T11:00:50;12.38;;;4.50;;
39050;SDS011;24805;55.852;37.644;2023-04-04T11:05:56;5.72;;;4.40;;
39050;SDS011;24805;55.852;37.644;2023-04-04T11:11:02;9.60;;;4.50;;
39050;SDS011;24805;55.852;37.644;2023-04-04T11:16:16;6.63;;;4.18;;
39050;SDS011;24805;55.852;37.644;2023-04-04T11:21:21;11.40;;;4.43;;
39050;SDS011;24805;55.852;37.644;2023-04-04T11:41:55;10.82;;;4.05;;
39050;SDS011;24805;55.852;37.644;2023-04-04T11:47:11;10.18;;;4.00;;
39050;SDS011;24805;55.852;37.644;2023-04-04T11:52:15;9.10;;;3.60;;
39050;SDS011;24805;55.852;37.644;2023-04-04T11:57:21;7.82;;;3.60;;
39050;SDS011;24805;55.852;37.644;2023-04-04T12:02:25;13.55;;;6.30;;
39050;SDS011;24805;55.852;37.644;2023-04-04T12:07:32;8.90;;;3.95;;
39050;SDS011;24805;55.852;37.644;2023-04-04T12:12:36;10.68;;;4.03;;
39050;SDS011;24805;55.852;37.644;2023-04-04T12:17:40;8.15;;;3.47;;
39050;SDS011;24805;55.852;37.644;2023-04-04T12:22:47;13.15;;;4.70;;
39050;SDS011;24805;55.852;37.644;2023-04-04T12:27:50;9.00;;;3.80;;
39050;SDS011;24805;55.852;37.644;2023-04-04T12:32:53;9.40;;;3.97;;
39050;SDS011;24805;55.852;37.644;2023-04-04T12:37:57;14.20;;;4.68;;
39050;SDS011;24805;55.852;37.644;2023-04-04T12:43:05;10.20;;;4.13;;
39050;SDS011;24805;55.852;37.644;2023-04-04T12:48:10;15.70;;;5.28;;
39050;SDS011;24805;55.852;37.644;2023-04-04T12:53:15;13.20;;;5.25;;
39050;SDS011;24805;55.852;37.644;2023-04-04T12:58:29;15.05;;;5.25;;
39050;SDS011;24805;55.852;37.644;2023-04-04T13:03:35;13.90;;;5.35;;
39050;SDS011;24805;55.852;37.644;2023-04-04T13:08:47;14.20;;;5.03;;
39050;SDS011;24805;55.852;37.644;2023-04-04T13:14:00;11.30;;;4.88;;
39050;SDS011;24805;55.852;37.644;2023-04-04T13:19:04;9.93;;;5.60;;
39050;SDS011;24805;55.852;37.644;2023-04-04T13:24:06;8.18;;;5.18;;
39050;SDS011;24805;55.852;37.644;2023-04-04T13:29:08;11.43;;;5.40;;
39050;SDS011;24805;55.852;37.644;2023-04-04T13:34:10;19.75;;;5.63;;
39050;SDS011;24805;55.852;37.644;2023-04-04T13:39:12;15.05;;;5.93;;
39050;SDS011;24805;55.852;37.644;2023-04-04T13:44:14;12.75;;;5.85;;
39050;SDS011;24805;55.852;37.644;2023-04-04T13:49:17;16.95;;;5.78;;
39050;SDS011;24805;55.852;37.644;2023-04-04T13:54:19;11.48;;;5.55;;
39050;SDS011;24805;55.852;37.644;2023-04-04T13:59:21;7.60;;;5.30;;
39050;SDS011;24805;55.852;37.644;2023-04-04T14:04:23;13.30;;;5.70;;
39050;SDS011;24805;55.852;37.644;2023-04-04T14:09:26;10.13;;;5.40;;
39050;SDS011;24805;55.852;37.644;2023-04-04T14:14:28;10.45;;;6.35;;
39050;SDS011;24805;55.852;37.644;2023-04-04T14:19:32;14.35;;;6.53;;
39050;SDS011;24805;55.852;37.644;2023-04-04T14:24:34;10.65;;;5.65;;
39050;SDS011;24805;55.852;37.644;2023-04-04T14:29:36;8.90;;;5.60;;
39050;SDS011;24805;55.852;37.644;2023-04-04T14:34:38;15.23;;;5.82;;
39050;SDS011;24805;55.852;37.644;2023-04-04T14:39:40;12.27;;;6.25;;
39050;SDS011;24805;55.852;37.644;2023-04-04T14:44:42;13.50;;;6.32;;
39050;SDS011;24805;55.852;37.644;2023-04-04T14:49:45;10.38;;;6.50;;
39050;SDS011;24805;55.852;37.644;2023-04-04T14:54:47;11.80;;;6.05;;
39050;SDS011;24805;55.852;37.644;2023-04-04T15:04:52;9.98;;;5.68;;
39050;SDS011;24805;55.852;37.644;2023-04-04T15:09:54;10.88;;;6.00;;
39050;SDS011;24805;55.852;37.644;2023-04-04T15:14:56;16.85;;;5.85;;
39050;SDS011;24805;55.852;37.644;2023-04-04T15:19:58;20.83;;;5.90;;
39050;SDS011;24805;55.852;37.644;2023-04-04T15:25:00;22.05;;;6.40;;
39050;SDS011;24805;55.852;37.644;2023-04-04T15:30:04;16.30;;;5.55;;
39050;SDS011;24805;55.852;37.644;2023-04-04T15:35:13;8.43;;;5.03;;
39050;SDS011;24805;55.852;37.644;2023-04-04T15:40:17;13.20;;;5.80;;
39050;SDS011;24805;55.852;37.644;2023-04-04T15:45:20;14.20;;;5.90;;
39050;SDS011;24805;55.852;37.644;2023-04-04T15:50:23;12.73;;;6.03;;
39050;SDS011;24805;55.852;37.644;2023-04-04T15:55:25;13.05;;;6.00;;
39050;SDS011;24805;55.852;37.644;2023-04-04T16:00:28;11.15;;;5.38;;
39050;SDS011;24805;55.852;37.644;2023-04-04T16:05:30;9.50;;;5.57;;
39050;SDS011;24805;55.852;37.644;2023-04-04T16:10:32;17.20;;;5.45;;
39050;SDS011;24805;55.852;37.644;2023-04-04T16:15:36;14.70;;;6.13;;
39050;SDS011;24805;55.852;37.644;2023-04-04T16:20:39;10.20;;;5.95;;
39050;SDS011;24805;55.852;37.644;2023-04-04T16:25:42;14.45;;;5.57;;
39050;SDS011;24805;55.852;37.644;2023-04-04T16:30:44;12.80;;;5.97;;
39050;SDS011;24805;55.852;37.644;2023-04-04T16:35:46;14.02;;;5.97;;
39050;SDS011;24805;55.852;37.644;2023-04-04T16:40:49;10.75;;;5.28;;
39050;SDS011;24805;55.852;37.644;2023-04-04T16:45:51;25.42;;;8.45;;
39050;SDS011;24805;55.852;37.644;2023-04-04T16:50:53;22.02;;;9.57;;
39050;SDS011;24805;55.852;37.644;2023-04-04T16:55:56;50.33;;;15.95;;
39050;SDS011;24805;55.852;37.644;2023-04-04T17:00:58;34.25;;;15.10;;
39050;SDS011;24805;55.852;37.644;2023-04-04T17:06:00;15.48;;;8.52;;
39050;SDS011;24805;55.852;37.644;2023-04-04T17:11:02;17.40;;;9.98;;
39050;SDS011;24805;55.852;37.644;2023-04-04T17:16:05;20.13;;;8.95;;
39050;SDS011;24805;55.852;37.644;2023-04-04T17:21:07;16.35;;;7.45;;
39050;SDS011;24805;55.852;37.644;2023-04-04T17:26:10;16.38;;;7.22;;
39050;SDS011;24805;55.852;37.644;2023-04-04T17:31:15;11.43;;;6.68;;
39050;SDS011;24805;55.852;37.644;2023-04-04T17:36:18;16.63;;;7.10;;
39050;SDS011;24805;55.852;37.644;2023-04-04T17:41:21;13.50;;;7.55;;
39050;SDS011;24805;55.852;37.644;2023-04-04T17:46:23;14.55;;;6.13;;
39050;SDS011;24805;55.852;37.644;2023-04-04T17:51:26;15.50;;;6.57;;
39050;SDS011;24805;55.852;37.644;2023-04-04T17:56:29;11.55;;;6.03;;
39050;SDS011;24805;55.852;37.644;2023-04-04T18:01:32;16.38;;;6.10;;
39050;SDS011;24805;55.852;37.644;2023-04-04T18:06:34;11.15;;;6.07;;
39050;SDS011;24805;55.852;37.644;2023-04-04T18:11:40;11.07;;;5.68;;
39050;SDS011;24805;55.852;37.644;2023-04-04T18:16:43;13.98;;;5.68;;
39050;SDS011;24805;55.852;37.644;2023-04-04T18:21:46;10.98;;;5.43;;
39050;SDS011;24805;55.852;37.644;2023-04-04T18:26:49;11.18;;;6.00;;
39050;SDS011;24805;55.852;37.644;2023-04-04T18:31:52;10.57;;;5.40;;
39050;SDS011;24805;55.852;37.644;2023-04-04T18:36:55;12.25;;;5.47;;
39050;SDS011;24805;55.852;37.644;2023-04-04T18:41:57;12.63;;;5.97;;
39050;SDS011;24805;55.852;37.644;2023-04-04T18:46:59;11.73;;;6.75;;
39050;SDS011;24805;55.852;37.644;2023-04-04T18:52:05;11.07;;;7.00;;
39050;SDS011;24805;55.852;37.644;2023-04-04T18:57:07;16.60;;;8.52;;
39050;SDS011;24805;55.852;37.644;2023-04-04T19:02:09;12.52;;;7.53;;
39050;SDS011;24805;55.852;37.644;2023-04-04T19:07:12;12.38;;;7.45;;
39050;SDS011;24805;55.852;37.644;2023-04-04T19:12:18;17.15;;;7.53;;
39050;SDS011;24805;55.852;37.644;2023-04-04T19:17:21;15.25;;;7.22;;
39050;SDS011;24805;55.852;37.644;2023-04-04T19:22:23;15.00;;;7.43;;
39050;SDS011;24805;55.852;37.644;2023-04-04T19:27:25;19.10;;;8.23;;
39050;SDS011;24805;55.852;37.644;2023-04-04T19:32:28;16.73;;;6.90;;
39050;SDS011;24805;55.852;37.644;2023-04-04T19:37:31;17.30;;;7.53;;
39050;SDS011;24805;55.852;37.644;2023-04-04T19:42:33;13.65;;;7.13;;
39050;SDS011;24805;55.852;37.644;2023-04-04T19:47:35;12.23;;;7.07;;
39050;SDS011;24805;55.852;37.644;2023-04-04T19:52:37;11.63;;;7.28;;
39050;SDS011;24805;55.852;37.644;2023-04-04T19:57:40;12.55;;;7.05;;
39050;SDS011;24805;55.852;37.644;2023-04-04T20:02:48;10.88;;;7.13;;
39050;SDS011;24805;55.852;37.644;2023-04-04T20:07:53;12.02;;;7.10;;
39050;SDS011;24805;55.852;37.644;2023-04-04T20:12:56;18.27;;;8.10;;
39050;SDS011;24805;55.852;37.644;2023-04-04T20:17:58;12.68;;;6.90;;
39050;SDS011;24805;55.852;37.644;2023-04-04T20:23:00;12.15;;;7.85;;
39050;SDS011;24805;55.852;37.644;2023-04-04T20:28:02;14.63;;;9.60;;
39050;SDS011;24805;55.852;37.644;2023-04-04T20:33:25;10.52;;;8.98;;
39050;SDS011;24805;55.852;37.644;2023-04-04T20:38:36;15.77;;;8.85;;
39050;SDS011;24805;55.852;37.644;2023-04-04T20:43:39;11.65;;;8.30;;
39050;SDS011;24805;55.852;37.644;2023-04-04T20:48:42;17.23;;;8.77;;
39050;SDS011;24805;55.852;37.644;2023-04-04T20:53:46;17.95;;;7.70;;
39050;SDS011;24805;55.852;37.644;2023-04-04T20:58:48;16.80;;;8.30;;
39050;SDS011;24805;55.852;37.644;2023-04-04T21:03:50;15.80;;;8.02;;
39050;SDS011;24805;55.852;37.644;2023-04-04T21:08:53;14.00;;;7.05;;
39050;SDS011;24805;55.852;37.644;2023-04-04T21:13:55;15.70;;;7.20;;
39050;SDS011;24805;55.852;37.644;2023-04-04T21:18:58;14.15;;;7.18;;
39050;SDS011;24805;55.852;37.644;2023-04-04T21:24:02;8.25;;;5.72;;
39050;SDS011;24805;55.852;37.644;2023-04-04T21:34:24;7.90;;;5.43;;
39050;SDS011;24805;55.852;37.644;2023-04-04T21:39:28;10.85;;;6.30;;
39050;SDS011;24805;55.852;37.644;2023-04-04T21:44:30;9.45;;;5.70;;
39050;SDS011;24805;55.852;37.644;2023-04-04T21:49:32;8.40;;;5.55;;
39050;SDS011;24805;55.852;37.644;2023-04-04T21:54:35;9.63;;;5.05;;
39050;SDS011;24805;55.852;37.644;2023-04-04T21:59:37;12.18;;;5.78;;
39050;SDS011;24805;55.852;37.644;2023-04-04T22:04:39;7.85;;;5.40;;
39050;SDS011;24805;55.852;37.644;2023-04-04T22:09:41;7.53;;;5.70;;
39050;SDS011;24805;55.852;37.644;2023-04-04T22:14:43;6.68;;;5.70;;
39050;SDS011;24805;55.852;37.644;2023-04-04T22:19:46;7.25;;;5.40;;
39050;SDS011;24805;55.852;37.644;2023-04-04T22:24:59;9.40;;;6.00;;
39050;SDS011;24805;55.852;37.644;2023-04-04T22:30:04;7.57;;;6.00;;
39050;SDS011;24805;55.852;37.644;2023-04-04T22:35:10;14.93;;;10.20;;
39050;SDS011;24805;55.852;37.644;2023-04-04T22:40:15;11.57;;;7.75;;
39050;SDS011;24805;55.852;37.644;2023-04-04T22:45:18;8.20;;;6.10;;
39050;SDS011;24805;55.852;37.644;2023-04-04T22:50:21;9.38;;;7.18;;
39050;SDS011;24805;55.852;37.644;2023-04-04T22:55:24;7.80;;;6.65;;
39050;SDS011;24805;55.852;37.644;2023-04-04T23:00:27;11.70;;;6.95;;
39050;SDS011;24805;55.852;37.644;2023-04-04T23:05:29;9.88;;;6.40;;
39050;SDS011;24805;55.852;37.644;2023-04-04T23:10:32;11.10;;;7.32;;
39050;SDS011;24805;55.852;37.644;2023-04-04T23:15:34;13.30;;;7.30;;
39050;SDS011;24805;55.852;37.644;2023-04-04T23:20:38;9.75;;;7.05;;
39050;SDS011;24805;55.852;37.644;2023-04-04T23:25:42;10.65;;;6.80;;
39050;SDS011;24805;55.852;37.644;2023-04-04T23:30:44;9.13;;;6.95;;
39050;SDS011;24805;55.852;37.644;2023-04-04T23:35:46;10.02;;;6.40;;
39050;SDS011;24805;55.852;37.644;2023-04-04T23:40:48;12.05;;;7.10;;
39050;SDS011;24805;55.852;37.644;2023-04-04T23:45:50;12.65;;;6.65;;
39050;SDS011;24805;55.852;37.644;2023-04-04T23:50:53;11.15;;;7.97;;
39050;SDS011;24805;55.852;37.644;2023-04-04T23:55:57;10.32;;;7.28;;
